createdAt,value
2023-03-12T00:00:17.060Z,49.47
2023-03-12T00:02:44.093Z,49.14
2023-03-12T00:05:11.226Z,49.33
2023-03-12T00:07:38.794Z,49.64
2023-03-12T00:10:06.734Z,49.71
2023-03-12T00:12:33.868Z,49.25
2023-03-12T00:15:01.332Z,49.42
2023-03-12T00:17:29.410Z,50.10
2023-03-12T00:19:56.680Z,49.78
2023-03-12T00:22:25.722Z,49.46
2023-03-12T00:24:54.454Z,49.84
2023-03-12T00:27:22.434Z,49.61
2023-03-12T00:29:50.052Z,49.70
2023-03-12T00:32:17.239Z,49.83
2023-03-12T00:34:44.565Z,49.64
2023-03-12T00:37:11.508Z,49.65
2023-03-12T00:39:38.466Z,49.74
2023-03-12T00:42:05.583Z,50.12
2023-03-12T00:44:32.519Z,50.19
2023-03-12T00:46:59.625Z,50.62
2023-03-12T00:49:26.896Z,50.29
2023-03-12T00:51:54.186Z,50.02
2023-03-12T00:54:21.984Z,50.19
2023-03-12T00:56:49.141Z,50.20
2023-03-12T00:59:16.462Z,50.31
2023-03-12T01:01:44.188Z,50.41
2023-03-12T01:04:11.655Z,50.27
2023-03-12T01:06:38.616Z,50.72
2023-03-12T01:09:06.996Z,50.44
2023-03-12T01:11:34.803Z,50.64
2023-03-12T01:14:04.163Z,50.59
2023-03-12T01:16:31.314Z,51.12
2023-03-12T01:18:59.372Z,50.89
2023-03-12T01:21:27.417Z,50.71
2023-03-12T01:23:55.284Z,51.17
2023-03-12T01:26:23.267Z,50.59
2023-03-12T01:28:50.577Z,50.94
2023-03-12T01:31:19.529Z,51.13
2023-03-12T01:33:52.143Z,50.72
2023-03-12T01:36:27.785Z,50.83
2023-03-12T01:38:59.356Z,51.10
2023-03-12T01:41:29.104Z,51.20
2023-03-12T01:43:56.222Z,50.89
2023-03-12T01:46:31.388Z,51.57
2023-03-12T01:49:18.955Z,51.48
2023-03-12T01:51:53.244Z,51.87
2023-03-12T01:54:26.015Z,51.52
2023-03-12T01:56:55.452Z,51.89
2023-03-12T01:59:31.238Z,51.64
2023-03-12T02:01:59.302Z,51.39
2023-03-12T02:04:28.993Z,51.34
2023-03-12T02:07:09.186Z,51.83
2023-03-12T02:09:41.106Z,51.32
2023-03-12T02:12:09.232Z,51.42
2023-03-12T02:14:38.211Z,51.54
2023-03-12T02:17:06.137Z,51.59
2023-03-12T02:19:39.345Z,51.76
2023-03-12T02:22:06.534Z,51.34
2023-03-12T02:24:46.466Z,51.98
2023-03-12T02:27:13.962Z,51.68
2023-03-12T02:29:44.325Z,51.67
2023-03-12T02:32:20.564Z,52.19
2023-03-12T02:34:48.271Z,52.39
2023-03-12T02:37:15.476Z,52.18
2023-03-12T02:39:44.757Z,52.46
2023-03-12T02:42:12.532Z,52.91
2023-03-12T02:44:39.938Z,52.35
2023-03-12T02:47:07.013Z,52.27
2023-03-12T02:49:35.278Z,52.89
2023-03-12T02:52:02.865Z,53.25
2023-03-12T02:54:30.374Z,52.48
2023-03-12T02:56:57.486Z,52.50
2023-03-12T02:59:28.842Z,52.44
2023-03-12T03:02:00.683Z,52.52
2023-03-12T03:04:29.975Z,52.41
2023-03-12T03:06:57.390Z,52.37
2023-03-12T03:09:25.354Z,52.74
2023-03-12T03:11:52.701Z,52.72
2023-03-12T03:14:20.137Z,52.53
2023-03-12T03:16:50.591Z,53.22
2023-03-12T03:19:17.948Z,52.91
2023-03-12T03:21:45.410Z,53.10
2023-03-12T03:24:12.555Z,53.72
2023-03-12T03:26:39.699Z,53.11
2023-03-12T03:29:06.713Z,53.30
2023-03-12T03:31:33.916Z,54.19
2023-03-12T03:34:01.211Z,53.14
2023-03-12T03:36:28.499Z,54.02
2023-03-12T03:39:01.960Z,54.09
2023-03-12T03:41:30.569Z,53.52
2023-03-12T03:43:58.926Z,53.34
2023-03-12T03:46:27.082Z,53.73
2023-03-12T03:48:59.798Z,53.69
2023-03-12T03:51:28.596Z,53.65
2023-03-12T03:54:00.587Z,53.16
2023-03-12T03:56:28.571Z,53.43
2023-03-12T03:58:58.456Z,53.33
2023-03-12T04:01:26.447Z,54.07
2023-03-12T04:03:55.095Z,53.43
2023-03-12T04:06:22.139Z,53.39
2023-03-12T04:08:49.079Z,52.44
2023-03-12T04:11:20.895Z,52.77
2023-03-12T04:13:49.210Z,52.67
2023-03-12T04:16:19.070Z,52.62
2023-03-12T04:18:47.313Z,52.48
2023-03-12T04:21:15.830Z,52.96
2023-03-12T04:23:43.889Z,52.49
2023-03-12T04:26:12.721Z,52.63
2023-03-12T04:28:40.048Z,52.93
2023-03-12T04:31:09.263Z,52.93
2023-03-12T04:33:41.017Z,52.80
2023-03-12T04:36:09.972Z,52.65
2023-03-12T04:38:40.136Z,52.75
2023-03-12T04:41:11.354Z,53.82
2023-03-12T04:43:41.829Z,53.66
2023-03-12T04:46:10.115Z,53.36
2023-03-12T04:48:37.882Z,53.44
2023-03-12T04:51:06.615Z,54.15
2023-03-12T04:53:33.784Z,53.80
2023-03-12T04:56:01.147Z,53.57
2023-03-12T04:58:29.192Z,53.76
2023-03-12T05:00:56.136Z,53.29
2023-03-12T05:03:23.179Z,53.46
2023-03-12T05:05:50.741Z,53.59
2023-03-12T05:08:17.874Z,53.74
2023-03-12T05:10:47.483Z,53.73
2023-03-12T05:13:19.862Z,54.21
2023-03-12T05:15:50.815Z,54.41
2023-03-12T05:18:20.695Z,53.71
2023-03-12T05:20:48.148Z,53.96
2023-03-12T05:23:15.310Z,53.98
2023-03-12T05:25:42.479Z,54.02
2023-03-12T05:28:09.556Z,54.38
2023-03-12T05:30:39.577Z,54.34
2023-03-12T05:33:06.552Z,55.07
2023-03-12T05:35:33.549Z,54.65
2023-03-12T05:38:00.581Z,55.44
2023-03-12T05:40:27.730Z,55.30
2023-03-12T05:42:54.803Z,55.01
2023-03-12T05:45:24.617Z,54.77
2023-03-12T05:47:54.101Z,54.65
2023-03-12T05:50:21.574Z,54.75
2023-03-12T05:52:48.724Z,55.03
2023-03-12T05:55:15.908Z,54.92
2023-03-12T05:57:45.019Z,55.14
2023-03-12T06:00:14.465Z,54.89
2023-03-12T06:02:45.638Z,54.87
2023-03-12T06:05:13.554Z,55.70
2023-03-12T06:07:40.958Z,55.00
2023-03-12T06:10:09.051Z,54.86
2023-03-12T06:12:36.433Z,55.12
2023-03-12T06:15:03.736Z,55.29
2023-03-12T06:17:32.080Z,55.11
2023-03-12T06:19:59.152Z,54.46
2023-03-12T06:22:26.826Z,54.08
2023-03-12T06:24:53.816Z,53.91
2023-03-12T06:27:21.276Z,53.27
2023-03-12T06:29:48.651Z,52.97
2023-03-12T06:32:16.162Z,52.11
2023-03-12T06:34:43.074Z,51.56
2023-03-12T06:37:10.378Z,50.37
2023-03-12T06:39:38.387Z,49.29
2023-03-12T06:42:05.829Z,48.21
2023-03-12T06:44:33.071Z,47.23
2023-03-12T06:46:59.959Z,46.37
2023-03-12T06:49:32.174Z,45.53
2023-03-12T06:51:59.486Z,44.92
2023-03-12T06:54:26.414Z,43.20
2023-03-12T06:56:53.624Z,42.67
2023-03-12T06:59:21.879Z,41.82
2023-03-12T07:01:49.571Z,40.72
2023-03-12T07:04:16.783Z,40.59
2023-03-12T07:06:50.657Z,39.53
2023-03-12T07:09:18.715Z,38.51
2023-03-12T07:11:45.813Z,38.14
2023-03-12T07:14:13.107Z,37.19
2023-03-12T07:16:40.116Z,36.41
2023-03-12T07:19:07.221Z,35.78
2023-03-12T07:21:34.826Z,34.41
2023-03-12T07:24:06.879Z,34.53
2023-03-12T07:26:35.784Z,33.89
2023-03-12T07:29:03.815Z,32.59
2023-03-12T07:31:30.933Z,32.25
2023-03-12T07:33:58.076Z,31.71
2023-03-12T07:36:25.348Z,31.20
2023-03-12T07:38:52.436Z,30.14
2023-03-12T07:41:19.420Z,29.70
2023-03-12T07:43:46.474Z,29.14
2023-03-12T07:46:14.110Z,29.03
2023-03-12T07:48:44.131Z,28.27
2023-03-12T07:51:11.682Z,27.86
2023-03-12T07:53:38.565Z,26.94
2023-03-12T07:56:05.996Z,26.67
2023-03-12T07:58:35.958Z,25.74
2023-03-12T08:01:03.225Z,26.05
2023-03-12T08:03:30.880Z,25.47
2023-03-12T08:06:03.184Z,23.67
2023-03-12T08:08:31.511Z,23.94
2023-03-12T08:11:00.436Z,24.09
2023-03-12T08:13:28.294Z,24.33
2023-03-12T08:15:55.290Z,24.67
2023-03-12T08:18:23.053Z,26.11
2023-03-12T08:20:52.112Z,25.49
2023-03-12T08:23:19.552Z,28.15
2023-03-12T08:25:51.147Z,28.15
2023-03-12T08:28:19.646Z,30.73
2023-03-12T08:30:51.668Z,31.65
2023-03-12T08:33:18.647Z,31.83
2023-03-12T08:35:45.897Z,31.51
2023-03-12T08:38:13.525Z,32.09
2023-03-12T08:40:40.577Z,31.29
2023-03-12T08:43:10.673Z,34.26
2023-03-12T08:45:38.041Z,33.75
2023-03-12T08:48:06.756Z,33.84
2023-03-12T08:50:33.799Z,34.17
2023-03-12T08:53:01.052Z,34.11
2023-03-12T08:55:28.238Z,32.66
2023-03-12T08:57:56.606Z,34.73
2023-03-12T09:00:23.501Z,33.84
2023-03-12T09:02:52.202Z,32.64
2023-03-12T09:05:19.544Z,33.74
2023-03-12T09:07:46.585Z,32.93
2023-03-12T09:10:13.525Z,33.38
2023-03-12T09:12:40.467Z,33.48
2023-03-12T09:15:08.701Z,32.16
2023-03-12T09:17:35.941Z,33.53
2023-03-12T09:20:07.642Z,33.07
2023-03-12T09:22:37.622Z,32.29
2023-03-12T09:25:07.692Z,32.32
2023-03-12T09:27:43.331Z,32.14
2023-03-12T09:30:13.843Z,33.25
2023-03-12T09:32:41.117Z,32.43
2023-03-12T09:35:09.260Z,30.81
2023-03-12T09:37:36.388Z,30.29
2023-03-12T09:40:08.124Z,29.70
2023-03-12T09:42:47.594Z,30.59
2023-03-12T09:45:23.962Z,32.37
2023-03-12T09:48:20.461Z,31.97
2023-03-12T09:50:52.349Z,30.16
2023-03-12T09:53:32.744Z,30.78
2023-03-12T09:56:02.660Z,31.48
2023-03-12T09:58:35.192Z,31.03
2023-03-12T10:01:08.022Z,31.01
2023-03-12T10:03:50.868Z,31.34
2023-03-12T10:06:27.797Z,32.89
2023-03-12T10:09:00.672Z,32.13
2023-03-12T10:11:27.687Z,31.33
2023-03-12T10:14:24.306Z,30.14
2023-03-12T10:17:10.180Z,28.04
2023-03-12T10:19:52.044Z,26.73
2023-03-12T10:22:18.925Z,26.49
2023-03-12T10:25:06.392Z,26.14
2023-03-12T10:27:37.302Z,24.82
2023-03-12T10:30:17.001Z,23.73
2023-03-12T10:32:50.038Z,23.32
2023-03-12T10:35:21.862Z,23.69
2023-03-12T10:37:59.068Z,21.91
2023-03-12T10:40:29.599Z,21.25
2023-03-12T10:42:57.251Z,21.15
2023-03-12T10:45:39.536Z,20.85
2023-03-12T10:48:08.999Z,21.86
2023-03-12T10:50:39.604Z,21.69
2023-03-12T10:53:20.812Z,21.09
2023-03-12T10:56:15.547Z,21.08
2023-03-12T10:58:49.803Z,22.44
2023-03-12T11:01:20.202Z,23.10
2023-03-12T11:03:47.240Z,22.56
2023-03-12T11:06:25.890Z,21.88
2023-03-12T11:09:17.580Z,21.42
2023-03-12T11:11:49.787Z,21.57
2023-03-12T11:14:20.492Z,22.97
2023-03-12T11:16:47.843Z,23.94
2023-03-12T11:19:26.657Z,25.00
2023-03-12T11:22:12.044Z,26.35
2023-03-12T11:24:59.809Z,25.48
2023-03-12T11:27:38.112Z,25.15
2023-03-12T11:30:07.962Z,24.43
2023-03-12T11:32:39.081Z,24.30
2023-03-12T11:35:14.987Z,24.91
2023-03-12T11:37:58.846Z,26.14
2023-03-12T11:40:50.605Z,27.09
2023-03-12T11:43:44.285Z,28.58
2023-03-12T11:46:39.384Z,29.57
2023-03-12T11:50:00.959Z,30.77
2023-03-12T11:53:00.500Z,31.59
2023-03-12T11:55:41.894Z,32.68
2023-03-12T11:58:21.105Z,33.37
2023-03-12T12:01:03.703Z,34.38
2023-03-12T12:03:48.689Z,34.45
2023-03-12T12:06:28.423Z,34.62
2023-03-12T12:09:10.477Z,35.10
2023-03-12T12:12:18.638Z,35.83
2023-03-12T12:15:03.103Z,36.64
2023-03-12T12:17:40.934Z,36.73
2023-03-12T12:20:19.277Z,38.95
2023-03-12T12:22:46.242Z,38.44
2023-03-12T12:26:05.885Z,39.18
2023-03-12T12:28:54.182Z,40.70
2023-03-12T12:31:30.421Z,40.16
2023-03-12T12:34:12.258Z,40.09
2023-03-12T12:36:40.632Z,41.78
2023-03-12T12:39:24.137Z,42.51
2023-03-12T12:41:54.988Z,41.64
2023-03-12T12:44:27.483Z,41.72
2023-03-12T12:47:03.924Z,41.98
2023-03-12T12:49:40.108Z,42.34
2023-03-12T12:52:11.586Z,41.98
2023-03-12T12:54:56.480Z,42.50
2023-03-12T12:57:29.314Z,43.34
2023-03-12T13:00:18.395Z,44.66
2023-03-12T13:02:48.147Z,43.83
2023-03-12T13:05:27.829Z,44.56
2023-03-12T13:07:55.569Z,44.60
2023-03-12T13:10:34.696Z,45.48
2023-03-12T13:13:19.280Z,45.44
2023-03-12T13:15:47.041Z,44.83
2023-03-12T13:18:29.470Z,45.93
2023-03-12T13:21:14.858Z,46.65
2023-03-12T13:24:19.745Z,46.97
2023-03-12T13:26:52.895Z,46.98
2023-03-12T13:29:31.492Z,46.68
2023-03-12T13:31:58.510Z,47.32
2023-03-12T13:34:28.419Z,47.23
2023-03-12T13:37:02.609Z,47.73
2023-03-12T13:39:33.534Z,47.55
2023-03-12T13:42:02.761Z,47.54
2023-03-12T13:44:38.789Z,48.17
2023-03-12T13:47:11.695Z,48.38
2023-03-12T13:50:13.137Z,48.72
2023-03-12T13:52:39.971Z,49.46
2023-03-12T13:55:27.563Z,49.45
2023-03-12T13:58:06.544Z,49.44
2023-03-12T14:00:49.663Z,49.60
2023-03-12T14:03:21.641Z,52.20
2023-03-12T14:05:55.294Z,52.56
2023-03-12T14:08:53.850Z,52.36
2023-03-12T14:11:48.663Z,51.96
2023-03-12T14:14:34.384Z,51.57
2023-03-12T14:17:04.078Z,50.98
2023-03-12T14:19:34.912Z,51.44
2023-03-12T14:22:05.910Z,51.30
2023-03-12T14:24:42.731Z,51.28
2023-03-12T14:27:21.600Z,51.50
2023-03-12T14:29:56.918Z,51.33
2023-03-12T14:32:29.081Z,51.16
2023-03-12T14:35:22.793Z,51.32
2023-03-12T14:37:55.827Z,52.64
2023-03-12T14:40:25.920Z,52.58
2023-03-12T14:42:53.203Z,52.96
2023-03-12T14:45:23.244Z,53.42
2023-03-12T14:48:12.212Z,53.84
2023-03-12T14:50:41.103Z,53.84
2023-03-12T14:53:20.045Z,54.17
2023-03-12T14:55:47.315Z,54.45
2023-03-12T14:58:20.729Z,54.08
2023-03-12T15:00:58.017Z,54.57
2023-03-12T15:03:25.533Z,54.00
2023-03-12T15:05:52.809Z,54.84
2023-03-12T15:08:20.233Z,54.35
2023-03-12T15:11:06.031Z,54.52
2023-03-12T15:13:33.078Z,54.11
2023-03-12T15:16:00.309Z,54.53
2023-03-12T15:18:30.100Z,54.63
2023-03-12T15:20:59.173Z,54.37
2023-03-12T15:23:28.118Z,54.20
2023-03-12T15:26:14.045Z,54.64
2023-03-12T15:28:42.214Z,53.98
2023-03-12T15:31:12.057Z,53.35
2023-03-12T15:33:39.704Z,52.84
2023-03-12T15:36:15.642Z,53.76
2023-03-12T15:38:52.352Z,53.03
2023-03-12T15:41:26.681Z,52.97
2023-03-12T15:44:01.489Z,54.89
2023-03-12T15:46:28.849Z,55.33
2023-03-12T15:48:59.365Z,55.72
2023-03-12T15:51:40.670Z,56.75
2023-03-12T15:54:28.045Z,56.00
2023-03-12T15:56:55.672Z,55.70
2023-03-12T15:59:27.503Z,55.43
2023-03-12T16:01:56.764Z,55.36
2023-03-12T16:04:24.693Z,55.68
2023-03-12T16:06:53.535Z,55.89
2023-03-12T16:09:26.398Z,55.69
2023-03-12T16:11:55.597Z,55.97
2023-03-12T16:14:34.712Z,56.82
2023-03-12T16:17:01.697Z,56.49
2023-03-12T16:19:30.361Z,56.83
2023-03-12T16:21:57.256Z,57.13
2023-03-12T16:24:24.117Z,57.98
2023-03-12T16:26:57.519Z,56.51
2023-03-12T16:29:33.424Z,57.15
2023-03-12T16:32:00.912Z,56.25
2023-03-12T16:34:28.939Z,56.28
2023-03-12T16:36:55.908Z,55.82
2023-03-12T16:39:24.259Z,55.72
2023-03-12T16:41:51.515Z,55.95
2023-03-12T16:44:21.982Z,55.79
2023-03-12T16:46:49.008Z,55.72
2023-03-12T16:49:18.148Z,55.75
2023-03-12T16:51:48.283Z,56.59
2023-03-12T16:54:15.673Z,55.44
2023-03-12T16:56:46.458Z,55.30
2023-03-12T16:59:27.677Z,56.25
2023-03-12T17:01:54.711Z,56.04
2023-03-12T17:04:21.709Z,56.36
2023-03-12T17:06:48.723Z,56.65
2023-03-12T17:09:15.681Z,56.61
2023-03-12T17:11:43.398Z,55.94
2023-03-12T17:14:22.062Z,56.69
2023-03-12T17:16:49.633Z,55.68
2023-03-12T17:19:17.109Z,57.09
2023-03-12T17:21:44.436Z,57.45
2023-03-12T17:24:14.199Z,57.62
2023-03-12T17:26:42.532Z,58.01
2023-03-12T17:29:09.578Z,58.33
2023-03-12T17:31:37.831Z,58.82
2023-03-12T17:34:05.407Z,58.53
2023-03-12T17:36:35.350Z,58.95
2023-03-12T17:39:02.366Z,58.98
2023-03-12T17:41:30.946Z,59.45
2023-03-12T17:44:01.693Z,59.41
2023-03-12T17:46:30.712Z,59.16
2023-03-12T17:48:57.723Z,59.09
2023-03-12T17:51:25.202Z,59.62
2023-03-12T17:53:52.275Z,60.25
2023-03-12T17:56:19.209Z,60.26
2023-03-12T17:58:46.267Z,60.48
2023-03-12T18:01:13.643Z,61.28
2023-03-12T18:03:41.095Z,61.57
2023-03-12T18:06:08.987Z,61.12
2023-03-12T18:08:36.397Z,60.88
2023-03-12T18:11:03.554Z,61.23
2023-03-12T18:13:30.858Z,60.89
2023-03-12T18:15:59.094Z,61.23
2023-03-12T18:18:26.728Z,61.47
2023-03-12T18:20:53.743Z,61.57
2023-03-12T18:23:20.929Z,61.32
2023-03-12T18:25:47.900Z,61.20
2023-03-12T18:28:15.514Z,61.27
2023-03-12T18:30:46.959Z,63.02
2023-03-12T18:33:14.661Z,62.00
2023-03-12T18:35:42.970Z,61.54
2023-03-12T18:38:09.997Z,61.45
2023-03-12T18:40:36.955Z,61.56
2023-03-12T18:43:04.235Z,61.79
2023-03-12T18:45:31.366Z,61.07
2023-03-12T18:47:58.313Z,61.47
2023-03-12T18:50:25.762Z,61.38
2023-03-12T18:52:52.805Z,61.66
2023-03-12T18:55:19.864Z,62.40
2023-03-12T18:57:47.749Z,62.87
2023-03-12T19:00:19.513Z,62.33
2023-03-12T19:02:48.403Z,62.13
2023-03-12T19:05:16.201Z,62.05
2023-03-12T19:07:43.790Z,61.43
2023-03-12T19:10:15.333Z,62.33
2023-03-12T19:12:52.174Z,62.03
2023-03-12T19:15:24.334Z,62.43
2023-03-12T19:17:51.478Z,63.31
2023-03-12T19:20:18.589Z,62.88
2023-03-12T19:22:45.698Z,62.31
2023-03-12T19:25:12.902Z,62.04
2023-03-12T19:27:39.965Z,62.25
2023-03-12T19:30:07.704Z,61.81
2023-03-12T19:32:43.235Z,61.41
2023-03-12T19:35:13.386Z,61.46
2023-03-12T19:37:40.824Z,62.85
2023-03-12T19:40:08.383Z,62.06
2023-03-12T19:42:35.240Z,63.13
2023-03-12T19:45:02.214Z,62.82
2023-03-12T19:47:29.460Z,63.21
2023-03-12T19:49:56.795Z,63.26
2023-03-12T19:52:24.447Z,63.65
2023-03-12T19:55:03.376Z,63.34
2023-03-12T19:57:31.945Z,62.85
2023-03-12T19:59:58.834Z,62.43
2023-03-12T20:02:26.555Z,62.39
2023-03-12T20:04:55.531Z,61.73
2023-03-12T20:07:22.744Z,62.33
2023-03-12T20:09:50.023Z,61.45
2023-03-12T20:12:17.064Z,62.28
2023-03-12T20:14:44.109Z,61.26
2023-03-12T20:17:12.307Z,60.45
2023-03-12T20:19:39.608Z,60.20
2023-03-12T20:22:07.481Z,60.06
2023-03-12T20:24:34.530Z,59.89
2023-03-12T20:27:01.922Z,60.13
2023-03-12T20:29:28.884Z,60.43
2023-03-12T20:31:55.981Z,60.19
2023-03-12T20:34:23.248Z,59.26
2023-03-12T20:36:50.451Z,59.27
2023-03-12T20:39:20.681Z,59.75
2023-03-12T20:41:49.344Z,59.05
2023-03-12T20:44:16.750Z,59.18
2023-03-12T20:46:43.656Z,60.37
2023-03-12T20:49:10.765Z,58.96
2023-03-12T20:51:37.671Z,59.49
2023-03-12T20:54:04.726Z,59.16
2023-03-12T20:56:31.878Z,58.47
2023-03-12T20:58:59.591Z,58.75
2023-03-12T21:01:26.954Z,58.65
2023-03-12T21:03:57.523Z,59.48
2023-03-12T21:06:24.592Z,59.51
2023-03-12T21:08:52.068Z,59.04
2023-03-12T21:11:19.274Z,58.94
2023-03-12T21:13:46.294Z,59.88
2023-03-12T21:16:13.575Z,58.49
2023-03-12T21:18:40.649Z,59.02
2023-03-12T21:21:08.616Z,59.21
2023-03-12T21:23:36.558Z,59.44
2023-03-12T21:26:09.550Z,59.34
2023-03-12T21:28:36.932Z,59.33
2023-03-12T21:31:09.677Z,58.87
2023-03-12T21:33:37.355Z,59.26
2023-03-12T21:36:06.512Z,59.02
2023-03-12T21:38:36.298Z,58.69
2023-03-12T21:41:17.203Z,58.78
2023-03-12T21:43:45.141Z,58.87
2023-03-12T21:46:14.603Z,58.96
2023-03-12T21:48:44.904Z,59.51
2023-03-12T21:51:14.461Z,58.83
2023-03-12T21:53:41.618Z,58.80
2023-03-12T21:56:09.703Z,58.66
2023-03-12T21:58:37.418Z,58.67
2023-03-12T22:01:13.297Z,58.92
2023-03-12T22:03:41.858Z,59.24
2023-03-12T22:06:10.307Z,58.66
2023-03-12T22:08:37.787Z,58.66
2023-03-12T22:11:06.404Z,58.83
2023-03-12T22:13:33.771Z,58.73
2023-03-12T22:16:03.962Z,59.50
2023-03-12T22:18:31.020Z,58.84
2023-03-12T22:21:01.455Z,58.92
2023-03-12T22:23:28.768Z,59.23
2023-03-12T22:25:55.889Z,59.30
2023-03-12T22:28:25.711Z,59.05
2023-03-12T22:31:04.850Z,59.32
2023-03-12T22:33:32.507Z,59.55
2023-03-12T22:35:59.644Z,59.94
2023-03-12T22:38:26.594Z,59.67
2023-03-12T22:40:55.616Z,58.97
2023-03-12T22:43:24.974Z,59.41
2023-03-12T22:45:54.947Z,58.89
2023-03-12T22:48:21.901Z,58.77
2023-03-12T22:50:57.767Z,58.98
2023-03-12T22:53:24.731Z,59.49
2023-03-12T22:56:08.918Z,59.26
2023-03-12T22:58:36.351Z,58.78
2023-03-12T23:01:15.776Z,59.16
2023-03-12T23:03:45.074Z,59.30
2023-03-12T23:06:17.433Z,59.49
2023-03-12T23:08:47.065Z,59.34
2023-03-12T23:11:15.626Z,58.74
2023-03-12T23:13:44.728Z,59.16
2023-03-12T23:16:15.799Z,59.53
2023-03-12T23:18:44.620Z,60.27
2023-03-12T23:21:15.031Z,60.38
2023-03-12T23:23:43.619Z,59.51
2023-03-12T23:26:19.298Z,59.73
2023-03-12T23:28:47.523Z,59.94
2023-03-12T23:31:16.219Z,59.51
2023-03-12T23:33:44.070Z,59.49
2023-03-12T23:36:14.178Z,59.89
2023-03-12T23:38:41.707Z,58.96
2023-03-12T23:41:19.658Z,59.16
2023-03-12T23:43:47.071Z,59.02
2023-03-12T23:46:17.068Z,59.00
2023-03-12T23:48:45.848Z,59.38
2023-03-12T23:51:16.600Z,59.28
2023-03-12T23:53:45.591Z,59.29
2023-03-12T23:56:15.313Z,59.09
2023-03-12T23:58:43.544Z,59.73
